createdAt,value
2023-04-08T00:00:10.832Z,100005.44
2023-04-08T00:02:38.105Z,100004.53
2023-04-08T00:05:06.473Z,100004.56
2023-04-08T00:07:33.859Z,99995.81
2023-04-08T00:10:01.224Z,100006.44
2023-04-08T00:12:28.508Z,100002.13
2023-04-08T00:14:55.526Z,100003.03
2023-04-08T00:17:22.751Z,100009.28
2023-04-08T00:19:49.833Z,100005.84
2023-04-08T00:22:17.771Z,100009.44
2023-04-08T00:24:44.923Z,99996.38
2023-04-08T00:27:11.918Z,99998.13
2023-04-08T00:29:39.072Z,99985.03
2023-04-08T00:32:06.514Z,99983.34
2023-04-08T00:34:33.474Z,99987.81
2023-04-08T00:37:01.289Z,99986.06
2023-04-08T00:39:28.109Z,99978.25
2023-04-08T00:41:55.135Z,99981.69
2023-04-08T00:44:22.292Z,99988.72
2023-04-08T00:46:49.626Z,99983.38
2023-04-08T00:49:17.646Z,99986.81
2023-04-08T00:51:44.858Z,99985.06
2023-04-08T00:54:12.135Z,99987.66
2023-04-08T00:56:39.695Z,99989.41
2023-04-08T00:59:07.180Z,99986.78
2023-04-08T01:01:51.620Z,99979.00
2023-04-08T01:04:27.702Z,99984.47
2023-04-08T01:07:13.485Z,99989.88
2023-04-08T01:09:49.749Z,100003.19
2023-04-08T01:12:22.957Z,100005.09
2023-04-08T01:14:56.236Z,100002.63
2023-04-08T01:17:23.896Z,100011.44
2023-04-08T01:19:52.262Z,100020.31
2023-04-08T01:22:44.361Z,100021.28
2023-04-08T01:25:39.241Z,100017.84
2023-04-08T01:28:10.320Z,100018.75
2023-04-08T01:30:40.763Z,100015.25
2023-04-08T01:33:08.394Z,100012.66
2023-04-08T01:35:36.322Z,100010.94
2023-04-08T01:38:04.042Z,100017.97
2023-04-08T01:40:32.489Z,100010.06
2023-04-08T01:43:01.260Z,100016.19
2023-04-08T01:45:28.981Z,100017.97
2023-04-08T01:47:58.831Z,100020.66
2023-04-08T01:50:26.854Z,100021.59
2023-04-08T01:52:56.437Z,100017.22
2023-04-08T01:55:24.948Z,100014.59
2023-04-08T01:57:53.422Z,100014.63
2023-04-08T02:00:25.885Z,100006.03
2023-04-08T02:02:54.961Z,100005.16
2023-04-08T02:05:22.241Z,100006.09
2023-04-08T02:07:49.441Z,100016.59
2023-04-08T02:10:16.534Z,100006.09
2023-04-08T02:12:44.852Z,99999.97
2023-04-08T02:15:13.459Z,100008.75
2023-04-08T02:17:51.234Z,100014.03
2023-04-08T02:20:35.149Z,100005.22
2023-04-08T02:23:19.699Z,100004.38
2023-04-08T02:25:48.506Z,100009.59
2023-04-08T02:28:18.064Z,100006.94
2023-04-08T02:30:51.165Z,100007.69
2023-04-08T02:33:23.343Z,100012.00
2023-04-08T02:35:55.306Z,100004.97
2023-04-08T02:38:24.457Z,100004.97
2023-04-08T02:40:51.951Z,100005.75
2023-04-08T02:43:19.031Z,100004.88
2023-04-08T02:45:46.709Z,100007.38
2023-04-08T02:48:15.576Z,100005.59
2023-04-08T02:50:42.505Z,99999.44
2023-04-08T02:53:10.105Z,100004.53
2023-04-08T02:55:39.671Z,100005.44
2023-04-08T02:58:06.998Z,100001.91
2023-04-08T03:00:34.233Z,100006.19
2023-04-08T03:03:02.146Z,100005.34
2023-04-08T03:05:29.567Z,100008.78
2023-04-08T03:07:56.411Z,99999.09
2023-04-08T03:10:23.598Z,100011.34
2023-04-08T03:12:51.126Z,100012.19
2023-04-08T03:15:18.086Z,100007.88
2023-04-08T03:17:45.549Z,100013.13
2023-04-08T03:20:12.582Z,100014.88
2023-04-08T03:22:39.736Z,100011.34
2023-04-08T03:25:07.450Z,100015.72
2023-04-08T03:27:35.009Z,100017.47
2023-04-08T03:30:02.845Z,100019.19
2023-04-08T03:32:30.379Z,100013.06
2023-04-08T03:34:58.088Z,100016.56
2023-04-08T03:37:25.831Z,100013.94
2023-04-08T03:39:55.779Z,100020.91
2023-04-08T03:42:23.528Z,100021.84
2023-04-08T03:44:52.184Z,100020.06
2023-04-08T03:47:20.137Z,100027.97
2023-04-08T03:49:47.906Z,100020.06
2023-04-08T03:52:15.466Z,100016.59
2023-04-08T03:54:43.110Z,100015.84
2023-04-08T03:57:12.375Z,100019.38
2023-04-08T03:59:41.144Z,100016.75
2023-04-08T04:02:08.866Z,100018.53
2023-04-08T04:04:37.224Z,100022.88
2023-04-08T04:07:04.397Z,100020.22
2023-04-08T04:09:31.789Z,100009.69
2023-04-08T04:11:59.422Z,100014.88
2023-04-08T04:14:26.465Z,100013.00
2023-04-08T04:16:54.364Z,100011.28
2023-04-08T04:19:21.382Z,100013.78
2023-04-08T04:21:48.629Z,100012.00
2023-04-08T04:24:15.992Z,100018.84
2023-04-08T04:26:43.601Z,100015.22
2023-04-08T04:29:10.853Z,100012.44
2023-04-08T04:31:38.546Z,100020.22
2023-04-08T04:34:06.133Z,100021.03
2023-04-08T04:36:33.980Z,100023.56
2023-04-08T04:39:01.222Z,100020.84
2023-04-08T04:41:28.200Z,100033.91
2023-04-08T04:43:55.603Z,100033.66
2023-04-08T04:46:23.038Z,100042.38
2023-04-08T04:48:50.117Z,100047.44
2023-04-08T04:51:17.536Z,100057.38
2023-04-08T04:53:44.656Z,100042.72
2023-04-08T04:56:11.861Z,100040.44
2023-04-08T04:58:39.624Z,100036.41
2023-04-08T05:01:06.704Z,100041.34
2023-04-08T05:03:34.181Z,100038.41
2023-04-08T05:06:02.076Z,100044.38
2023-04-08T05:08:29.161Z,100042.50
2023-04-08T05:10:57.093Z,100051.16
2023-04-08T05:13:24.303Z,100049.41
2023-04-08T05:15:51.700Z,100042.00
2023-04-08T05:18:19.086Z,100038.97
2023-04-08T05:20:47.041Z,100039.34
2023-04-08T05:23:14.094Z,100047.56
2023-04-08T05:25:42.055Z,100043.31
2023-04-08T05:28:09.476Z,100041.75
2023-04-08T05:30:36.667Z,100039.03
2023-04-08T05:33:04.176Z,100041.59
2023-04-08T05:35:32.017Z,100045.78
2023-04-08T05:37:59.632Z,100046.16
2023-04-08T05:40:27.308Z,100040.00
2023-04-08T05:42:54.615Z,100045.84
2023-04-08T05:45:21.762Z,100048.53
2023-04-08T05:47:48.580Z,100046.66
2023-04-08T05:50:15.936Z,100053.03
2023-04-08T05:52:46.480Z,100055.94
2023-04-08T05:55:14.954Z,100042.44
2023-04-08T05:57:42.290Z,100039.75
2023-04-08T06:00:11.621Z,100038.22
2023-04-08T06:02:39.116Z,100036.66
2023-04-08T06:05:06.773Z,100038.53
2023-04-08T06:07:34.936Z,100042.59
2023-04-08T06:10:02.691Z,100050.75
2023-04-08T06:12:30.129Z,100057.50
2023-04-08T06:14:57.276Z,100064.88
2023-04-08T06:17:24.750Z,100059.84
2023-04-08T06:19:52.041Z,100060.88
2023-04-08T06:22:19.312Z,100056.84
2023-04-08T06:24:48.410Z,100060.09
2023-04-08T06:27:16.241Z,100055.13
2023-04-08T06:29:43.670Z,100058.84
2023-04-08T06:32:11.530Z,100052.06
2023-04-08T06:34:39.642Z,100052.53
2023-04-08T06:37:07.341Z,100053.34
2023-04-08T06:39:34.683Z,100057.22
2023-04-08T06:42:02.127Z,100051.53
2023-04-08T06:44:44.645Z,100042.00
2023-04-08T06:47:12.094Z,100046.91
2023-04-08T06:49:42.389Z,100046.66
2023-04-08T06:52:09.656Z,100052.63
2023-04-08T06:54:37.755Z,100055.63
2023-04-08T06:57:04.839Z,100063.72
2023-04-08T06:59:32.363Z,100060.34
2023-04-08T07:02:00.696Z,100058.75
2023-04-08T07:04:28.374Z,100055.31
2023-04-08T07:06:56.024Z,100056.50
2023-04-08T07:09:23.356Z,100049.19
2023-04-08T07:11:51.372Z,100054.88
2023-04-08T07:14:19.770Z,100049.13
2023-04-08T07:16:46.796Z,100041.81
2023-04-08T07:19:14.287Z,100055.75
2023-04-08T07:21:42.386Z,100059.88
2023-04-08T07:24:10.085Z,100059.69
2023-04-08T07:26:38.894Z,100060.03
2023-04-08T07:29:05.764Z,100051.72
2023-04-08T07:31:33.134Z,100046.47
2023-04-08T07:34:00.380Z,100061.38
2023-04-08T07:36:28.227Z,100056.16
2023-04-08T07:38:55.922Z,100042.88
2023-04-08T07:41:23.533Z,100048.25
2023-04-08T07:43:50.880Z,100057.06
2023-04-08T07:46:17.981Z,100046.88
2023-04-08T07:48:45.588Z,100053.28
2023-04-08T07:51:12.694Z,100052.25
2023-04-08T07:53:40.718Z,100053.88
2023-04-08T07:56:13.205Z,100051.06
2023-04-08T07:58:43.664Z,100055.75
2023-04-08T08:01:22.743Z,100059.16
2023-04-08T08:03:51.662Z,100057.84
2023-04-08T08:06:19.668Z,100057.56
2023-04-08T08:08:47.080Z,100054.69
2023-04-08T08:11:14.350Z,100052.41
2023-04-08T08:13:41.396Z,100049.50
2023-04-08T08:16:12.104Z,100052.19
2023-04-08T08:18:41.693Z,100049.63
2023-04-08T08:21:10.123Z,100055.53
2023-04-08T08:23:38.014Z,100049.53
2023-04-08T08:26:07.829Z,100046.19
2023-04-08T08:28:35.715Z,100047.56
2023-04-08T08:31:03.670Z,100048.66
2023-04-08T08:33:30.630Z,100038.94
2023-04-08T08:35:58.435Z,100052.97
2023-04-08T08:38:26.310Z,100053.59
2023-04-08T08:41:00.887Z,100043.91
2023-04-08T08:43:30.059Z,100049.75
2023-04-08T08:45:57.644Z,100048.03
2023-04-08T08:48:25.970Z,100048.94
2023-04-08T08:50:53.225Z,100055.38
2023-04-08T08:53:21.078Z,100056.38
2023-04-08T08:58:19.280Z,100047.59
2023-04-08T09:00:47.055Z,100048.00
2023-04-08T09:03:16.298Z,100045.63
2023-04-08T09:05:54.164Z,100052.44
2023-04-08T09:08:32.716Z,100050.88
2023-04-08T09:11:13.999Z,100050.38
2023-04-08T09:13:41.466Z,100044.38
2023-04-08T09:16:11.265Z,100049.59
2023-04-08T09:18:39.494Z,100052.06
2023-04-08T09:21:07.285Z,100052.25
2023-04-08T09:23:48.970Z,100053.63
2023-04-08T09:26:24.498Z,100057.78
2023-04-08T09:29:18.375Z,100058.56
2023-04-08T09:32:00.333Z,100043.53
2023-04-08T09:34:29.049Z,100039.38
2023-04-08T09:36:56.770Z,100044.63
2023-04-08T09:39:24.331Z,100036.16
2023-04-08T09:41:53.394Z,100041.41
2023-04-08T09:44:22.230Z,100038.44
2023-04-08T09:47:20.062Z,100033.03
2023-04-08T09:49:51.898Z,100040.66
2023-04-08T09:52:30.911Z,100036.25
2023-04-08T09:55:06.980Z,100034.28
2023-04-08T09:57:55.213Z,100032.59
2023-04-08T10:00:35.466Z,100026.09
2023-04-08T10:03:21.382Z,100027.75
2023-04-08T10:05:50.216Z,100029.16
2023-04-08T10:08:17.968Z,100037.94
2023-04-08T10:10:47.841Z,100035.41
2023-04-08T10:13:16.014Z,100040.56
2023-04-08T10:15:44.582Z,100038.19
2023-04-08T10:18:11.912Z,100039.72
2023-04-08T10:20:40.021Z,100040.44
2023-04-08T10:23:10.032Z,100041.78
2023-04-08T10:25:45.469Z,100040.72
2023-04-08T10:28:12.726Z,100046.53
2023-04-08T10:30:41.716Z,100049.13
2023-04-08T10:33:16.315Z,100040.91
2023-04-08T10:35:53.878Z,100042.16
2023-04-08T10:38:21.799Z,100035.94
2023-04-08T10:40:50.721Z,100041.09
2023-04-08T10:43:19.086Z,100041.59
2023-04-08T10:45:48.570Z,100041.69
2023-04-08T10:48:22.805Z,100036.28
2023-04-08T10:50:57.697Z,100030.56
2023-04-08T10:53:28.425Z,100031.38
2023-04-08T10:56:08.837Z,100035.44
2023-04-08T10:58:37.838Z,100021.84
2023-04-08T11:01:07.619Z,100020.38
2023-04-08T11:03:37.648Z,100012.19
2023-04-08T11:06:05.650Z,100010.16
2023-04-08T11:08:34.012Z,100000.69
2023-04-08T11:11:02.514Z,99995.38
2023-04-08T11:13:30.013Z,99978.09
2023-04-08T11:15:59.935Z,99986.50
2023-04-08T11:18:29.984Z,99993.47
2023-04-08T11:21:00.176Z,99987.06
2023-04-08T11:23:28.094Z,99990.97
2023-04-08T11:25:55.921Z,99977.84
2023-04-08T11:28:26.693Z,99978.78
2023-04-08T11:30:55.859Z,99987.91
2023-04-08T11:33:26.916Z,99985.34
2023-04-08T11:35:54.917Z,99990.75
2023-04-08T11:38:25.227Z,99993.13
2023-04-08T11:40:59.214Z,100000.16
2023-04-08T11:43:27.215Z,99994.69
2023-04-08T11:45:54.772Z,99991.00
2023-04-08T11:48:21.906Z,99986.44
2023-04-08T11:51:02.412Z,99979.66
2023-04-08T11:53:30.123Z,99983.09
2023-04-08T11:55:57.981Z,99975.66
2023-04-08T11:58:25.229Z,99976.53
2023-04-08T12:00:52.582Z,99973.69
2023-04-08T12:03:20.040Z,99969.63
2023-04-08T12:05:47.187Z,99964.50
2023-04-08T12:08:14.575Z,99964.22
2023-04-08T12:10:41.984Z,99962.25
2023-04-08T12:13:09.772Z,99985.34
2023-04-08T12:15:38.376Z,99998.03
2023-04-08T12:18:06.637Z,100000.81
2023-04-08T12:20:37.524Z,100007.03
2023-04-08T12:23:05.208Z,100013.97
2023-04-08T12:25:32.749Z,100015.66
2023-04-08T12:27:59.964Z,100012.25
2023-04-08T12:30:27.163Z,99987.13
2023-04-08T12:32:55.778Z,99995.81
2023-04-08T12:35:23.812Z,100003.78
2023-04-08T12:37:51.658Z,99998.44
2023-04-08T12:40:19.776Z,100012.34
2023-04-08T12:42:47.991Z,100012.84
2023-04-08T12:45:14.920Z,100017.19
2023-04-08T12:47:41.974Z,100023.16
2023-04-08T12:50:10.810Z,100028.78
2023-04-08T12:52:37.763Z,100030.94
2023-04-08T12:55:05.752Z,100030.69
2023-04-08T12:57:33.771Z,100023.56
2023-04-08T13:00:01.764Z,100022.47
2023-04-08T13:02:28.859Z,100030.13
2023-04-08T13:04:56.641Z,100035.66
2023-04-08T13:07:23.916Z,100034.88
2023-04-08T13:09:51.583Z,100032.84
2023-04-08T13:12:18.710Z,100028.91
2023-04-08T13:14:46.936Z,100021.50
2023-04-08T13:17:14.717Z,100018.41
2023-04-08T13:19:42.546Z,100006.72
2023-04-08T13:22:09.797Z,100006.53
2023-04-08T13:24:37.638Z,100002.69
2023-04-08T13:27:05.160Z,100009.53
2023-04-08T13:29:32.016Z,100008.03
2023-04-08T13:31:59.600Z,100008.13
2023-04-08T13:34:26.633Z,99997.84
2023-04-08T13:36:56.553Z,99998.88
2023-04-08T13:39:23.856Z,100004.91
2023-04-08T13:41:51.601Z,100005.09
2023-04-08T13:44:18.819Z,100002.94
2023-04-08T13:46:46.440Z,100000.66
2023-04-08T13:49:15.915Z,99995.78
2023-04-08T13:51:42.755Z,99998.47
2023-04-08T13:54:09.966Z,99989.53
2023-04-08T13:56:37.550Z,99988.84
2023-04-08T13:59:04.898Z,99986.94
2023-04-08T14:01:32.109Z,99987.44
2023-04-08T14:03:59.798Z,99987.03
2023-04-08T14:06:27.679Z,99987.59
2023-04-08T14:08:55.574Z,99988.19
2023-04-08T14:11:23.585Z,99996.91
2023-04-08T14:13:51.595Z,99997.00
2023-04-08T14:16:18.572Z,99992.91
2023-04-08T14:18:46.089Z,99995.25
2023-04-08T14:21:16.036Z,99993.06
2023-04-08T14:23:43.259Z,99983.44
2023-04-08T14:26:10.226Z,99989.13
2023-04-08T14:28:37.004Z,99995.97
2023-04-08T14:31:05.000Z,100010.06
2023-04-08T14:33:32.887Z,100033.09
2023-04-08T14:36:00.368Z,100072.25
2023-04-08T14:38:27.972Z,100090.75
2023-04-08T14:40:55.076Z,100093.94
2023-04-08T14:43:22.649Z,100085.38
2023-04-08T14:45:51.854Z,100096.13
2023-04-08T14:48:19.842Z,100100.13
2023-04-08T14:50:47.087Z,100102.94
2023-04-08T14:53:14.488Z,100097.66
2023-04-08T14:55:41.821Z,100098.00
2023-04-08T14:58:09.698Z,100105.44
2023-04-08T15:00:37.856Z,100083.91
2023-04-08T15:03:05.308Z,100084.41
2023-04-08T15:05:35.545Z,100089.19
2023-04-08T15:08:04.575Z,100076.38
2023-04-08T15:10:32.400Z,100071.56
2023-04-08T15:12:59.686Z,100076.22
2023-04-08T15:15:27.850Z,100074.88
2023-04-08T15:17:55.109Z,100067.16
2023-04-08T15:20:22.474Z,100066.56
2023-04-08T15:22:49.726Z,100065.84
2023-04-08T15:25:16.909Z,100066.94
2023-04-08T15:27:43.910Z,100056.41
2023-04-08T15:30:12.460Z,100063.56
2023-04-08T15:32:39.878Z,100058.25
2023-04-08T15:35:07.727Z,100066.16
2023-04-08T15:37:35.564Z,100067.00
2023-04-08T15:40:02.912Z,100052.78
2023-04-08T15:42:30.085Z,100054.38
2023-04-08T15:44:57.252Z,100060.41
2023-04-08T15:47:24.452Z,100057.63
2023-04-08T15:49:52.883Z,100054.03
2023-04-08T15:52:20.118Z,100059.34
2023-04-08T15:54:47.330Z,100055.84
2023-04-08T15:57:16.329Z,100055.97
2023-04-08T15:59:43.707Z,100064.97
2023-04-08T16:02:11.727Z,100063.44
2023-04-08T16:04:39.380Z,100064.63
2023-04-08T16:07:06.828Z,100059.63
2023-04-08T16:09:33.986Z,100059.09
2023-04-08T16:12:01.408Z,100063.00
2023-04-08T16:14:30.460Z,100066.91
2023-04-08T16:17:03.700Z,100069.16
2023-04-08T16:19:31.569Z,100068.66
2023-04-08T16:21:59.435Z,100082.25
2023-04-08T16:24:26.887Z,100078.16
2023-04-08T16:26:54.658Z,100091.78
2023-04-08T16:29:23.249Z,100092.09
2023-04-08T16:31:53.179Z,100094.22
2023-04-08T16:34:21.845Z,100094.59
2023-04-08T16:36:50.008Z,100107.34
2023-04-08T16:39:16.844Z,100117.28
2023-04-08T16:41:44.091Z,100131.31
2023-04-08T16:44:11.298Z,100139.97
2023-04-08T16:46:39.113Z,100147.00
2023-04-08T16:49:06.806Z,100145.13
2023-04-08T16:51:34.585Z,100146.00
2023-04-08T16:54:02.015Z,100140.81
2023-04-08T16:56:29.425Z,100141.03
2023-04-08T16:58:56.556Z,100146.56
2023-04-08T17:01:23.672Z,100149.50
2023-04-08T17:03:52.574Z,100149.78
2023-04-08T17:06:20.424Z,100156.88
2023-04-08T17:08:47.799Z,100152.72
2023-04-08T17:11:15.575Z,100154.53
2023-04-08T17:13:44.069Z,100160.81
2023-04-08T17:16:16.406Z,100159.22
2023-04-08T17:18:44.887Z,100162.78
2023-04-08T17:21:14.147Z,100155.00
2023-04-08T17:23:41.561Z,100159.47
2023-04-08T17:26:10.072Z,100157.75
2023-04-08T17:28:37.048Z,100159.63
2023-04-08T17:31:04.007Z,100164.78
2023-04-08T17:33:31.508Z,100157.69
2023-04-08T17:35:58.869Z,100156.66
2023-04-08T17:38:25.991Z,100160.09
2023-04-08T17:40:53.447Z,100167.00
2023-04-08T17:43:20.602Z,100168.72
2023-04-08T17:45:50.104Z,100172.19
2023-04-08T17:48:18.832Z,100163.41
2023-04-08T17:50:46.100Z,100162.38
2023-04-08T17:53:13.182Z,100165.28
2023-04-08T17:55:40.540Z,100165.25
2023-04-08T17:58:07.901Z,100168.88
2023-04-08T18:00:34.917Z,100170.72
2023-04-08T18:03:02.047Z,100175.94
2023-04-08T18:05:30.187Z,100171.63
2023-04-08T18:07:58.429Z,100175.16
2023-04-08T18:10:25.846Z,100173.72
2023-04-08T18:13:00.591Z,100177.19
2023-04-08T18:15:37.735Z,100176.34
2023-04-08T18:18:04.579Z,100177.94
2023-04-08T18:20:36.292Z,100174.31
2023-04-08T18:23:06.674Z,100172.47
2023-04-08T18:25:34.803Z,100180.56
2023-04-08T18:28:02.068Z,100178.53
2023-04-08T18:30:30.472Z,100178.53
2023-04-08T18:32:57.860Z,100176.66
2023-04-08T18:35:26.002Z,100189.81
2023-04-08T18:37:53.003Z,100197.75
2023-04-08T18:40:20.407Z,100198.56
2023-04-08T18:42:47.492Z,100203.72
2023-04-08T18:45:14.852Z,100193.88
2023-04-08T18:47:42.147Z,100198.22
2023-04-08T18:50:09.796Z,100198.09
2023-04-08T18:52:37.612Z,100204.06
2023-04-08T18:55:05.580Z,100200.72
2023-04-08T18:57:33.432Z,100209.59
2023-04-08T19:00:00.777Z,100209.38
2023-04-08T19:02:27.939Z,100208.31
2023-04-08T19:04:55.877Z,100200.31
2023-04-08T19:07:23.777Z,100197.59
2023-04-08T19:09:51.126Z,100208.03
2023-04-08T19:12:18.048Z,100201.78
2023-04-08T19:14:45.457Z,100202.59
2023-04-08T19:17:12.622Z,100210.38
2023-04-08T19:19:39.727Z,100209.41
2023-04-08T19:22:07.403Z,100206.69
2023-04-08T19:24:34.718Z,100201.34
2023-04-08T19:27:01.625Z,100197.69
2023-04-08T19:29:31.260Z,100201.19
2023-04-08T19:31:59.580Z,100196.75
2023-04-08T19:34:27.011Z,100191.47
2023-04-08T19:36:53.907Z,100201.16
2023-04-08T19:39:21.622Z,100202.03
2023-04-08T19:41:49.259Z,100203.84
2023-04-08T19:44:16.729Z,100201.16
2023-04-08T19:46:44.122Z,100194.19
2023-04-08T19:49:11.659Z,100200.41
2023-04-08T19:51:38.766Z,100197.81
2023-04-08T19:54:05.693Z,100194.41
2023-04-08T19:56:34.116Z,100196.25
2023-04-08T19:59:02.168Z,100193.66
2023-04-08T20:01:29.640Z,100195.50
2023-04-08T20:03:57.233Z,100185.94
2023-04-08T20:06:24.462Z,100184.22
2023-04-08T20:08:53.495Z,100180.88
2023-04-08T20:11:21.514Z,100181.88
2023-04-08T20:13:50.083Z,100178.59
2023-04-08T20:16:17.729Z,100180.53
2023-04-08T20:18:45.142Z,100180.78
2023-04-08T20:21:14.305Z,100184.44
2023-04-08T20:23:44.531Z,100178.41
2023-04-08T20:26:13.388Z,100170.56
2023-04-08T20:28:40.972Z,100172.38
2023-04-08T20:31:09.681Z,100169.88
2023-04-08T20:33:43.712Z,100170.00
2023-04-08T20:36:12.574Z,100168.25
2023-04-08T20:38:40.928Z,100166.66
2023-04-08T20:41:08.211Z,100166.63
2023-04-08T20:43:35.104Z,100164.91
2023-04-08T20:46:02.429Z,100162.28
2023-04-08T20:48:29.719Z,100153.47
2023-04-08T20:50:57.822Z,100149.97
2023-04-08T20:53:26.505Z,100149.09
2023-04-08T20:55:53.448Z,100153.59
2023-04-08T20:58:20.775Z,100150.19
2023-04-08T21:00:48.083Z,100145.91
2023-04-08T21:03:15.543Z,100148.63
2023-04-08T21:05:43.271Z,100144.34
2023-04-08T21:08:10.508Z,100146.28
2023-04-08T21:10:37.864Z,100151.72
2023-04-08T21:13:05.093Z,100141.44
2023-04-08T21:15:32.251Z,100151.47
2023-04-08T21:17:59.585Z,100149.03
2023-04-08T21:20:26.985Z,100142.38
2023-04-08T21:22:54.153Z,100149.56
2023-04-08T21:25:21.630Z,100144.50
2023-04-08T21:27:48.547Z,100150.78
2023-04-08T21:30:16.896Z,100148.31
2023-04-08T21:32:44.255Z,100148.53
2023-04-08T21:35:11.535Z,100156.63
2023-04-08T21:37:38.657Z,100161.19
2023-04-08T21:40:06.185Z,100164.88
2023-04-08T21:42:33.332Z,100166.94
2023-04-08T21:45:00.461Z,100168.75
2023-04-08T21:47:27.601Z,100159.28
2023-04-08T21:49:56.011Z,100167.34
2023-04-08T21:52:23.071Z,100168.44
2023-04-08T21:54:51.707Z,100167.66
2023-04-08T21:57:18.915Z,100160.66
2023-04-08T21:59:45.805Z,100164.22
2023-04-08T22:02:13.527Z,100157.22
2023-04-08T22:04:40.931Z,100156.44
2023-04-08T22:07:08.441Z,100156.47
2023-04-08T22:09:35.740Z,100155.69
2023-04-08T22:12:03.400Z,100155.66
2023-04-08T22:14:30.981Z,100155.63
2023-04-08T22:16:58.316Z,100158.31
2023-04-08T22:19:25.644Z,100159.28
2023-04-08T22:21:52.460Z,100160.31
2023-04-08T22:24:20.708Z,100156.13
2023-04-08T22:26:47.697Z,100164.25
2023-04-08T22:29:14.609Z,100155.66
2023-04-08T22:31:41.599Z,100160.09
2023-04-08T22:34:08.792Z,100163.63
2023-04-08T22:36:36.058Z,100157.41
2023-04-08T22:39:04.057Z,100165.28
2023-04-08T22:41:31.350Z,100156.44
2023-04-08T22:43:58.158Z,100151.91
2023-04-08T22:46:25.181Z,100159.75
2023-04-08T22:48:52.784Z,100151.78
2023-04-08T22:51:20.058Z,100154.25
2023-04-08T22:53:47.254Z,100155.09
2023-04-08T22:56:14.535Z,100141.84
2023-04-08T22:58:41.608Z,100147.94
2023-04-08T23:01:26.554Z,100148.91
2023-04-08T23:03:53.882Z,100153.47
2023-04-08T23:06:21.355Z,100148.41
2023-04-08T23:08:48.816Z,100150.41
2023-04-08T23:11:15.901Z,100144.53
2023-04-08T23:13:43.544Z,100145.66
2023-04-08T23:16:10.678Z,100144.16
2023-04-08T23:18:37.879Z,100148.81
2023-04-08T23:21:05.389Z,100148.09
2023-04-08T23:23:32.639Z,100147.44
2023-04-08T23:25:59.716Z,100157.25
2023-04-08T23:28:27.486Z,100153.00
2023-04-08T23:30:54.675Z,100148.78
2023-04-08T23:33:22.076Z,100149.72
2023-04-08T23:35:49.319Z,100145.38
2023-04-08T23:38:16.307Z,100150.63
2023-04-08T23:40:43.159Z,100146.19
2023-04-08T23:43:10.524Z,100144.34
2023-04-08T23:45:37.488Z,100147.75
2023-04-08T23:48:08.861Z,100148.50
2023-04-08T23:50:36.842Z,100149.25
2023-04-08T23:53:03.727Z,100148.31
2023-04-08T23:55:30.973Z,100147.31
2023-04-08T23:57:58.078Z,100148.97
